Topsfield, Massachusetts
Current Conditions -  °F | °C
As of 12:53 AM on Saturday 29 Nov 2014 (Local Time) from KBVY Reporting Station
Clear Clear  
Wind Chill: 14°   Ceiling: Unl
Heat Index: 22°   Visibility: 10mi
Dew Point: 13°   Wind: 6mph
Humidity: 68%   Direction: 300°WNW
Pressure: 30.21"   Gusts: NA
Location:  42.64°N, 70.95°W
Report Text: KBVY 290553Z AUTO 30005KT 10SM CLR M06/M11 A3021 RMK AO2 SLP228 T10561106 11022 21061 51013
Loading
Personal Weather Stations






























Interactive Weather Map New forecast layout! Learn more

10-Day Weather Forecast

Advertisements
Track Severe Weather on mobile